createdAt,value
2022-08-16T00:01:04.308Z,57.44
2022-08-16T00:03:37.564Z,57.97
2022-08-16T00:06:08.047Z,57.88
2022-08-16T00:08:40.165Z,57.83
2022-08-16T00:11:16.896Z,58.22
2022-08-16T00:13:53.309Z,57.96
2022-08-16T00:17:05.374Z,57.60
2022-08-16T00:19:19.788Z,57.91
2022-08-16T00:21:56.042Z,58.03
2022-08-16T00:24:32.984Z,57.73
2022-08-16T00:27:05.523Z,58.06
2022-08-16T00:29:39.762Z,57.86
2022-08-16T00:32:13.153Z,58.58
2022-08-16T00:34:53.015Z,58.74
2022-08-16T00:37:57.311Z,58.71
2022-08-16T00:40:35.019Z,58.49
2022-08-16T00:43:11.954Z,58.82
2022-08-16T00:45:57.800Z,58.59
2022-08-16T00:48:40.371Z,58.74
2022-08-16T00:51:16.015Z,58.96
2022-08-16T00:53:48.037Z,58.96
2022-08-16T00:56:58.663Z,59.28
2022-08-16T00:59:15.400Z,59.98
2022-08-16T01:01:47.348Z,59.80
2022-08-16T01:04:29.428Z,60.03
2022-08-16T01:07:04.835Z,60.44
2022-08-16T01:09:42.989Z,60.01
2022-08-16T01:12:26.545Z,60.02
2022-08-16T01:15:00.521Z,60.44
2022-08-16T01:17:36.676Z,60.03
2022-08-16T01:20:23.703Z,59.86
2022-08-16T01:23:08.770Z,59.66
2022-08-16T01:25:44.699Z,59.86
2022-08-16T01:28:33.009Z,60.08
2022-08-16T01:31:05.432Z,59.77
2022-08-16T01:33:35.935Z,59.57
2022-08-16T01:36:12.044Z,60.13
2022-08-16T01:38:49.020Z,60.02
2022-08-16T01:41:26.137Z,60.41
2022-08-16T01:44:00.874Z,59.92
2022-08-16T01:46:39.845Z,60.58
2022-08-16T01:49:14.910Z,60.67
2022-08-16T01:51:47.335Z,61.08
2022-08-16T01:54:17.359Z,60.96
2022-08-16T01:57:03.309Z,60.88
2022-08-16T01:59:33.894Z,61.24
2022-08-16T02:02:05.028Z,61.05
2022-08-16T02:04:55.034Z,61.12
2022-08-16T02:07:25.491Z,60.71
2022-08-16T02:09:59.053Z,60.56
2022-08-16T02:12:50.455Z,60.85
2022-08-16T02:15:25.990Z,60.51
2022-08-16T02:17:57.793Z,60.80
2022-08-16T02:20:29.100Z,61.07
2022-08-16T02:23:01.693Z,61.31
2022-08-16T02:25:50.587Z,61.43
2022-08-16T02:28:24.773Z,61.73
2022-08-16T02:30:58.015Z,61.21
2022-08-16T02:33:44.647Z,61.08
2022-08-16T02:36:47.432Z,61.09
2022-08-16T02:39:11.659Z,61.21
2022-08-16T02:41:53.298Z,61.03
2022-08-16T02:44:27.085Z,60.76
2022-08-16T02:46:58.591Z,60.80
2022-08-16T02:49:57.931Z,61.35
2022-08-16T02:52:29.079Z,61.53
2022-08-16T02:55:00.110Z,61.17
2022-08-16T02:57:31.164Z,61.71
2022-08-16T03:00:33.989Z,61.69
2022-08-16T03:02:57.581Z,61.85
2022-08-16T03:05:30.866Z,61.44
2022-08-16T03:08:01.492Z,61.90
2022-08-16T03:10:33.332Z,61.89
2022-08-16T03:13:12.436Z,61.52
2022-08-16T03:15:44.711Z,61.72
2022-08-16T03:18:34.775Z,61.67
2022-08-16T03:21:10.148Z,61.96
2022-08-16T03:23:43.619Z,62.04
2022-08-16T03:26:14.999Z,62.48
2022-08-16T03:28:48.257Z,62.24
2022-08-16T03:31:20.278Z,62.39
2022-08-16T03:33:52.140Z,62.44
2022-08-16T03:36:30.809Z,62.29
2022-08-16T03:39:03.425Z,62.28
2022-08-16T03:41:49.627Z,62.35
2022-08-16T03:44:43.348Z,62.85
2022-08-16T03:47:12.699Z,62.67
2022-08-16T03:49:51.901Z,63.32
2022-08-16T03:52:23.966Z,63.07
2022-08-16T03:55:01.712Z,63.00
2022-08-16T03:57:35.749Z,63.27
2022-08-16T04:00:20.703Z,63.06
2022-08-16T04:03:08.841Z,62.82
2022-08-16T04:05:44.246Z,63.19
2022-08-16T04:08:24.199Z,63.42
2022-08-16T04:10:57.930Z,63.82
2022-08-16T04:13:59.062Z,63.11
2022-08-16T04:16:27.521Z,63.43
2022-08-16T04:19:02.233Z,63.22
2022-08-16T04:21:34.463Z,63.29
2022-08-16T04:24:07.920Z,63.41
2022-08-16T04:26:38.311Z,62.86
2022-08-16T04:29:24.412Z,62.90
2022-08-16T04:31:56.913Z,62.69
2022-08-16T04:34:32.613Z,62.50
2022-08-16T04:37:03.355Z,62.67
2022-08-16T04:39:47.093Z,62.93
2022-08-16T04:42:26.507Z,62.78
2022-08-16T04:45:01.967Z,62.86
2022-08-16T04:47:35.859Z,63.73
2022-08-16T04:50:11.363Z,63.73
2022-08-16T04:52:46.566Z,63.38
2022-08-16T04:55:18.974Z,63.21
2022-08-16T04:57:53.665Z,62.92
2022-08-16T05:00:32.696Z,62.96
2022-08-16T05:03:07.633Z,62.73
2022-08-16T05:05:44.807Z,62.54
2022-08-16T05:08:29.844Z,62.52
2022-08-16T05:11:03.705Z,62.37
2022-08-16T05:13:41.750Z,61.93
2022-08-16T05:16:19.791Z,61.20
2022-08-16T05:18:52.430Z,61.10
2022-08-16T05:21:24.377Z,60.71
2022-08-16T05:24:00.318Z,60.57
2022-08-16T05:26:33.287Z,60.58
2022-08-16T05:29:04.562Z,60.43
2022-08-16T05:31:35.257Z,60.17
2022-08-16T05:34:05.802Z,59.78
2022-08-16T05:36:53.113Z,59.66
2022-08-16T05:39:23.229Z,59.43
2022-08-16T05:41:55.654Z,59.27
2022-08-16T05:44:25.868Z,58.78
2022-08-16T05:46:57.738Z,58.78
2022-08-16T05:49:39.770Z,58.50
2022-08-16T05:52:13.620Z,58.07
2022-08-16T05:55:01.018Z,57.52
2022-08-16T05:57:34.483Z,57.27
2022-08-16T06:00:09.789Z,57.07
2022-08-16T06:02:40.254Z,55.65
2022-08-16T06:05:11.166Z,55.59
2022-08-16T06:07:58.503Z,54.95
2022-08-16T06:10:31.860Z,54.92
2022-08-16T06:13:03.139Z,54.77
2022-08-16T06:15:33.637Z,53.90
2022-08-16T06:18:06.062Z,54.13
2022-08-16T06:20:36.853Z,54.23
2022-08-16T06:23:23.974Z,54.30
2022-08-16T06:25:54.299Z,53.87
2022-08-16T06:28:36.263Z,53.77
2022-08-16T06:31:12.090Z,53.32
2022-08-16T06:33:44.764Z,53.30
2022-08-16T06:36:16.597Z,53.32
2022-08-16T06:38:55.617Z,53.26
2022-08-16T06:41:27.646Z,52.32
2022-08-16T06:43:58.050Z,52.32
2022-08-16T06:46:34.123Z,51.97
2022-08-16T06:49:06.253Z,51.88
2022-08-16T06:51:48.000Z,51.11
2022-08-16T06:54:20.251Z,50.91
2022-08-16T06:56:53.949Z,50.65
2022-08-16T06:59:25.586Z,50.19
2022-08-16T07:01:58.400Z,49.45
2022-08-16T07:04:33.217Z,49.42
2022-08-16T07:07:09.802Z,49.59
2022-08-16T07:09:41.240Z,50.12
2022-08-16T07:12:12.637Z,49.13
2022-08-16T07:14:48.624Z,48.94
2022-08-16T07:17:21.695Z,48.77
2022-08-16T07:20:30.158Z,48.37
2022-08-16T07:22:43.288Z,48.93
2022-08-16T07:25:24.930Z,49.26
2022-08-16T07:27:55.429Z,48.54
2022-08-16T07:30:45.538Z,48.19
2022-08-16T07:33:48.122Z,47.76
2022-08-16T07:36:08.505Z,46.13
2022-08-16T07:38:39.932Z,45.90
2022-08-16T07:41:11.932Z,45.42
2022-08-16T07:43:42.124Z,45.22
2022-08-16T07:46:37.511Z,44.94
2022-08-16T07:49:04.598Z,44.35
2022-08-16T07:51:42.620Z,44.15
2022-08-16T07:54:20.748Z,44.48
2022-08-16T07:56:53.169Z,43.15
2022-08-16T07:59:26.116Z,43.83
2022-08-16T08:02:19.868Z,43.92
2022-08-16T08:04:51.029Z,43.43
2022-08-16T08:07:20.944Z,43.15
2022-08-16T08:09:50.840Z,42.42
2022-08-16T08:12:31.941Z,42.01
2022-08-16T08:15:09.608Z,41.72
2022-08-16T08:17:42.685Z,42.01
2022-08-16T08:20:23.902Z,41.33
2022-08-16T08:23:00.804Z,41.37
2022-08-16T08:25:53.664Z,41.46
2022-08-16T08:28:23.313Z,40.72
2022-08-16T08:31:01.089Z,40.63
2022-08-16T08:33:33.989Z,40.25
2022-08-16T08:36:07.472Z,40.04
2022-08-16T08:38:45.321Z,39.02
2022-08-16T08:41:18.627Z,39.21
2022-08-16T08:43:51.285Z,38.88
2022-08-16T08:46:22.550Z,38.18
2022-08-16T08:48:59.512Z,38.40
2022-08-16T08:51:35.922Z,38.92
2022-08-16T08:54:09.479Z,38.78
2022-08-16T08:56:45.417Z,38.76
2022-08-16T08:59:20.165Z,38.23
2022-08-16T09:01:57.532Z,37.26
2022-08-16T09:04:29.011Z,37.21
2022-08-16T09:07:01.303Z,37.84
2022-08-16T09:09:33.335Z,38.64
2022-08-16T09:12:06.765Z,38.28
2022-08-16T09:14:50.939Z,37.65
2022-08-16T09:17:45.598Z,37.53
2022-08-16T09:20:14.475Z,37.70
2022-08-16T09:22:52.371Z,37.61
2022-08-16T09:25:26.328Z,37.88
2022-08-16T09:28:08.959Z,37.51
2022-08-16T09:30:44.276Z,37.30
2022-08-16T09:33:19.987Z,37.40
2022-08-16T09:35:53.060Z,37.39
2022-08-16T09:38:32.456Z,36.79
2022-08-16T09:41:14.403Z,37.27
2022-08-16T09:43:59.435Z,36.39
2022-08-16T09:46:45.927Z,35.94
2022-08-16T09:49:20.309Z,36.02
2022-08-16T09:51:55.557Z,35.38
2022-08-16T09:54:32.224Z,35.57
2022-08-16T09:57:03.477Z,35.83
2022-08-16T09:59:38.217Z,35.85
2022-08-16T10:02:26.607Z,35.66
2022-08-16T10:04:58.952Z,35.27
2022-08-16T10:07:55.150Z,35.49
2022-08-16T10:10:30.406Z,34.43
2022-08-16T10:13:12.735Z,33.75
2022-08-16T10:15:55.602Z,33.56
2022-08-16T10:19:02.242Z,33.71
2022-08-16T10:21:19.770Z,34.55
2022-08-16T10:23:53.671Z,33.88
2022-08-16T10:27:19.015Z,33.78
2022-08-16T10:29:20.164Z,33.56
2022-08-16T10:31:53.555Z,33.36
2022-08-16T10:34:32.405Z,32.79
2022-08-16T10:37:03.365Z,32.72
2022-08-16T10:39:41.589Z,32.98
2022-08-16T10:42:13.705Z,33.50
2022-08-16T10:44:53.380Z,32.75
2022-08-16T10:47:24.002Z,31.91
2022-08-16T10:49:56.010Z,31.63
2022-08-16T10:52:27.823Z,31.35
2022-08-16T10:57:56.332Z,30.98
2022-08-16T11:00:27.100Z,31.48
2022-08-16T11:03:01.209Z,31.56
2022-08-16T11:08:35.260Z,31.62
2022-08-16T11:11:11.721Z,31.71
2022-08-16T11:13:58.749Z,30.66
2022-08-16T11:19:20.173Z,29.88
2022-08-16T11:24:45.033Z,29.77
2022-08-16T11:27:22.951Z,29.55
2022-08-16T11:29:56.639Z,30.70
2022-08-16T11:32:31.429Z,31.15
2022-08-16T11:35:13.335Z,31.06
2022-08-16T11:40:44.199Z,30.45
2022-08-16T11:43:16.903Z,30.44
2022-08-16T11:45:54.162Z,30.70
2022-08-16T11:48:25.601Z,30.29
2022-08-16T11:50:56.437Z,29.92
2022-08-16T11:53:29.951Z,29.74
2022-08-16T11:56:06.777Z,29.66
2022-08-16T11:58:39.500Z,30.33
2022-08-16T12:01:11.929Z,30.94
2022-08-16T12:03:45.956Z,31.13
2022-08-16T12:06:30.303Z,30.14
2022-08-16T12:09:04.245Z,30.62
2022-08-16T12:11:34.692Z,31.50
2022-08-16T12:14:06.721Z,30.17
2022-08-16T12:16:37.914Z,30.21
2022-08-16T12:19:13.607Z,30.86
2022-08-16T12:21:59.400Z,30.79
2022-08-16T12:24:31.064Z,31.39
2022-08-16T12:27:01.600Z,31.68
2022-08-16T12:29:31.610Z,31.48
2022-08-16T12:32:26.608Z,31.99
2022-08-16T12:34:53.032Z,32.08
2022-08-16T12:37:24.713Z,30.75
2022-08-16T12:39:57.142Z,31.74
2022-08-16T12:42:35.189Z,31.85
2022-08-16T12:45:07.595Z,31.96
2022-08-16T12:48:15.886Z,30.97
2022-08-16T12:50:49.099Z,30.43
2022-08-16T12:53:21.413Z,30.17
2022-08-16T12:55:53.515Z,30.85
2022-08-16T12:58:48.289Z,30.74
2022-08-16T13:01:14.238Z,31.14
2022-08-16T13:03:45.328Z,31.04
2022-08-16T13:06:19.996Z,31.33
2022-08-16T13:09:02.505Z,32.06
2022-08-16T13:11:41.470Z,32.09
2022-08-16T13:14:31.300Z,32.73
2022-08-16T13:17:05.158Z,32.74
2022-08-16T13:20:06.617Z,32.22
2022-08-16T13:22:28.182Z,31.44
2022-08-16T13:24:58.520Z,31.22
2022-08-16T13:28:02.604Z,31.52
2022-08-16T13:30:35.691Z,32.28
2022-08-16T13:33:12.436Z,32.32
2022-08-16T13:35:55.944Z,33.05
2022-08-16T13:38:31.564Z,32.98
2022-08-16T13:41:09.464Z,31.99
2022-08-16T13:43:41.973Z,32.21
2022-08-16T13:46:12.091Z,32.47
2022-08-16T13:48:44.699Z,32.39
2022-08-16T13:51:18.006Z,33.23
2022-08-16T13:53:59.637Z,33.20
2022-08-16T13:56:37.482Z,33.54
2022-08-16T13:59:20.196Z,33.61
2022-08-16T14:01:55.422Z,33.66
2022-08-16T14:04:28.257Z,33.98
2022-08-16T14:06:59.811Z,34.52
2022-08-16T14:09:32.180Z,34.61
2022-08-16T14:12:09.768Z,34.18
2022-08-16T14:14:56.354Z,34.44
2022-08-16T14:17:28.029Z,34.30
2022-08-16T14:19:59.679Z,34.24
2022-08-16T14:22:35.869Z,34.81
2022-08-16T14:25:16.272Z,34.50
2022-08-16T14:27:47.653Z,34.57
2022-08-16T14:30:25.590Z,34.07
2022-08-16T14:32:56.027Z,35.00
2022-08-16T14:35:36.686Z,35.13
2022-08-16T14:38:23.783Z,34.63
2022-08-16T14:40:55.587Z,34.12
2022-08-16T14:43:29.735Z,33.99
2022-08-16T14:46:04.629Z,33.95
2022-08-16T14:48:37.520Z,34.12
2022-08-16T14:51:07.519Z,33.94
2022-08-16T14:53:38.703Z,34.10
2022-08-16T14:56:38.261Z,33.86
2022-08-16T14:59:07.082Z,33.95
2022-08-16T15:01:57.960Z,34.57
2022-08-16T15:04:47.816Z,34.60
2022-08-16T15:07:21.639Z,35.51
2022-08-16T15:10:00.013Z,36.05
2022-08-16T15:12:36.396Z,36.77
2022-08-16T15:15:16.636Z,36.67
2022-08-16T15:17:56.758Z,37.11
2022-08-16T15:20:30.719Z,37.13
2022-08-16T15:23:04.066Z,37.60
2022-08-16T15:25:41.461Z,37.51
2022-08-16T15:28:30.517Z,38.16
2022-08-16T15:31:04.546Z,38.67
2022-08-16T15:33:44.282Z,38.75
2022-08-16T15:36:19.154Z,39.47
2022-08-16T15:39:02.213Z,40.09
2022-08-16T15:41:58.237Z,41.57
2022-08-16T15:44:42.743Z,40.65
2022-08-16T15:47:22.458Z,40.80
2022-08-16T15:49:57.961Z,40.37
2022-08-16T15:52:30.757Z,41.45
2022-08-16T15:55:07.535Z,40.63
2022-08-16T15:57:53.865Z,40.37
2022-08-16T16:00:26.792Z,40.64
2022-08-16T16:03:08.738Z,40.14
2022-08-16T16:05:43.277Z,40.83
2022-08-16T16:08:22.437Z,40.09
2022-08-16T16:10:59.316Z,39.79
2022-08-16T16:13:30.280Z,40.14
2022-08-16T16:16:03.904Z,39.94
2022-08-16T16:18:48.705Z,40.52
2022-08-16T16:21:20.915Z,40.58
2022-08-16T16:23:54.896Z,40.49
2022-08-16T16:26:28.157Z,39.89
2022-08-16T16:29:08.901Z,40.90
2022-08-16T16:31:59.083Z,40.59
2022-08-16T16:34:32.221Z,40.39
2022-08-16T16:37:09.466Z,40.47
2022-08-16T16:39:41.059Z,40.63
2022-08-16T16:42:29.173Z,40.86
2022-08-16T16:45:03.062Z,41.22
2022-08-16T16:47:41.738Z,41.17
2022-08-16T16:50:24.517Z,41.41
2022-08-16T16:52:57.885Z,41.61
2022-08-16T16:55:29.043Z,41.58
2022-08-16T16:58:17.787Z,41.82
2022-08-16T17:00:59.808Z,42.61
2022-08-16T17:03:30.437Z,42.85
2022-08-16T17:06:03.141Z,43.60
2022-08-16T17:08:41.988Z,43.09
2022-08-16T17:11:12.644Z,43.70
2022-08-16T17:13:43.930Z,43.14
2022-08-16T17:19:16.604Z,43.23
2022-08-16T17:21:52.129Z,43.58
2022-08-16T17:24:31.989Z,43.97
2022-08-16T17:27:10.331Z,43.56
2022-08-16T17:29:45.899Z,43.50
2022-08-16T17:32:46.651Z,43.82
2022-08-16T17:35:17.840Z,44.05
2022-08-16T17:37:51.937Z,43.62
2022-08-16T17:39:28.191Z,43.28
2022-08-16T17:40:40.346Z,44.37
2022-08-16T17:43:17.508Z,44.42
2022-08-16T17:45:48.806Z,44.72
2022-08-16T17:48:18.984Z,44.47
2022-08-16T17:50:49.072Z,44.82
2022-08-16T17:53:25.372Z,44.57
2022-08-16T17:55:57.131Z,45.13
2022-08-16T17:58:27.424Z,45.04
2022-08-16T18:00:59.944Z,44.77
2022-08-16T18:03:40.844Z,45.45
2022-08-16T18:06:25.568Z,45.20
2022-08-16T18:09:02.700Z,45.67
2022-08-16T18:11:41.209Z,45.29
2022-08-16T18:14:15.749Z,45.72
2022-08-16T18:16:47.948Z,45.51
2022-08-16T18:19:17.947Z,45.91
2022-08-16T18:22:10.590Z,45.58
2022-08-16T18:24:40.612Z,45.65
2022-08-16T18:27:25.893Z,45.57
2022-08-16T18:29:56.990Z,45.97
2022-08-16T18:32:27.626Z,45.99
2022-08-16T18:34:58.320Z,46.02
2022-08-16T18:37:28.263Z,46.10
2022-08-16T18:39:58.639Z,46.73
2022-08-16T18:42:30.027Z,46.39
2022-08-16T18:44:59.836Z,46.48
2022-08-16T18:47:29.752Z,46.66
2022-08-16T18:50:00.522Z,46.44
2022-08-16T18:52:30.759Z,46.43
2022-08-16T18:55:13.946Z,46.57
2022-08-16T18:57:46.705Z,46.51
2022-08-16T19:00:20.845Z,46.27
2022-08-16T19:02:58.910Z,46.33
2022-08-16T19:05:30.900Z,45.70
2022-08-16T19:08:02.333Z,45.14
2022-08-16T19:10:33.458Z,44.94
2022-08-16T19:13:10.078Z,44.54
2022-08-16T19:15:42.168Z,44.86
2022-08-16T19:18:12.501Z,45.27
2022-08-16T19:20:44.726Z,45.69
2022-08-16T19:23:17.514Z,46.14
2022-08-16T19:25:53.022Z,46.29
2022-08-16T19:28:51.581Z,46.60
2022-08-16T19:31:21.982Z,46.72
2022-08-16T19:33:55.400Z,47.46
2022-08-16T19:36:31.730Z,48.27
2022-08-16T19:39:06.373Z,48.53
2022-08-16T19:41:38.157Z,49.11
2022-08-16T19:44:10.202Z,48.87
2022-08-16T19:46:44.910Z,49.08
2022-08-16T19:49:16.476Z,49.09
2022-08-16T19:51:47.315Z,48.88
2022-08-16T19:54:17.647Z,48.75
2022-08-16T19:56:47.960Z,48.78
2022-08-16T19:59:40.565Z,48.87
2022-08-16T20:02:35.903Z,48.94
2022-08-16T20:05:07.057Z,49.27
2022-08-16T20:07:37.078Z,49.11
2022-08-16T20:10:08.222Z,49.21
2022-08-16T20:12:38.807Z,49.33
2022-08-16T20:15:15.847Z,49.04
2022-08-16T20:17:46.381Z,49.00
2022-08-16T20:20:20.242Z,49.09
2022-08-16T20:22:53.870Z,49.17
2022-08-16T20:25:28.465Z,49.23
2022-08-16T20:27:59.611Z,49.16
2022-08-16T20:30:31.065Z,49.07
2022-08-16T20:33:00.998Z,49.61
2022-08-16T20:35:31.636Z,50.01
2022-08-16T20:38:04.019Z,50.01
2022-08-16T20:40:35.697Z,50.08
2022-08-16T20:43:08.411Z,49.75
2022-08-16T20:45:44.057Z,50.09
2022-08-16T20:48:14.806Z,50.08
2022-08-16T20:50:45.305Z,50.20
2022-08-16T20:53:15.489Z,50.17
2022-08-16T20:55:45.916Z,50.64
2022-08-16T20:58:16.142Z,50.35
2022-08-16T21:00:47.578Z,50.33
2022-08-16T21:03:17.525Z,50.36
2022-08-16T21:05:47.722Z,50.44
2022-08-16T21:08:51.590Z,50.34
2022-08-16T21:11:08.704Z,50.61
2022-08-16T21:13:42.671Z,50.63
2022-08-16T21:16:16.515Z,51.01
2022-08-16T21:18:46.791Z,50.76
2022-08-16T21:21:16.767Z,50.72
2022-08-16T21:23:46.675Z,50.93
2022-08-16T21:26:16.676Z,50.59
2022-08-16T21:28:46.823Z,50.91
2022-08-16T21:31:19.025Z,50.94
2022-08-16T21:33:55.082Z,50.83
2022-08-16T21:36:35.549Z,50.92
2022-08-16T21:39:07.448Z,50.99
2022-08-16T21:41:38.504Z,50.88
2022-08-16T21:44:09.069Z,50.77
2022-08-16T21:46:40.512Z,50.77
2022-08-16T21:49:10.398Z,50.79
2022-08-16T21:51:40.381Z,50.65
2022-08-16T21:54:10.543Z,50.99
2022-08-16T21:56:40.614Z,50.79
2022-08-16T21:59:13.447Z,50.51
2022-08-16T22:01:45.702Z,50.36
2022-08-16T22:04:38.161Z,50.35
2022-08-16T22:07:06.500Z,50.27
2022-08-16T22:09:37.122Z,50.40
2022-08-16T22:12:08.031Z,50.47
2022-08-16T22:14:38.899Z,50.45
2022-08-16T22:17:10.136Z,50.23
2022-08-16T22:19:40.018Z,49.85
2022-08-16T22:22:10.921Z,49.76
2022-08-16T22:24:41.246Z,49.73
2022-08-16T22:27:11.521Z,49.63
2022-08-16T22:29:42.299Z,48.93
2022-08-16T22:32:13.794Z,48.89
2022-08-16T22:34:43.687Z,48.64
2022-08-16T22:37:13.633Z,48.54
2022-08-16T22:39:43.875Z,48.47
2022-08-16T22:42:14.268Z,48.56
2022-08-16T22:44:46.241Z,48.50
2022-08-16T22:47:18.289Z,48.73
2022-08-16T22:49:48.218Z,48.66
2022-08-16T22:52:56.067Z,48.60
2022-08-16T22:55:08.737Z,48.42
2022-08-16T22:57:38.666Z,48.58
2022-08-16T23:00:11.929Z,48.66
2022-08-16T23:03:02.906Z,48.76
2022-08-16T23:05:35.440Z,48.48
2022-08-16T23:08:07.494Z,48.43
2022-08-16T23:10:38.060Z,48.27
2022-08-16T23:13:09.349Z,48.31
2022-08-16T23:15:41.963Z,48.19
2022-08-16T23:18:13.783Z,48.34
2022-08-16T23:20:44.182Z,48.42
2022-08-16T23:23:19.915Z,48.43
2022-08-16T23:25:55.072Z,48.44
2022-08-16T23:28:27.336Z,48.68
2022-08-16T23:30:58.707Z,48.66
2022-08-16T23:33:30.174Z,48.88
2022-08-16T23:36:01.761Z,48.71
2022-08-16T23:38:39.000Z,48.80
2022-08-16T23:41:11.609Z,48.67
2022-08-16T23:43:44.381Z,48.54
2022-08-16T23:46:17.062Z,48.38
2022-08-16T23:49:58.908Z,48.38
2022-08-16T23:51:38.696Z,48.63
2022-08-16T23:54:11.563Z,48.86
2022-08-16T23:56:41.803Z,48.53
2022-08-16T23:59:11.773Z,48.67
